createdAt,value
2023-04-19T00:01:15.139Z,70.29
2023-04-19T00:04:05.319Z,71.38
2023-04-19T00:06:52.964Z,71.13
2023-04-19T00:09:39.702Z,71.39
2023-04-19T00:12:26.421Z,70.45
2023-04-19T00:15:13.227Z,71.59
2023-04-19T00:17:59.970Z,70.39
2023-04-19T00:20:48.827Z,71.28
2023-04-19T00:23:35.810Z,72.12
2023-04-19T00:26:22.372Z,72.04
2023-04-19T00:29:12.228Z,72.46
2023-04-19T00:31:58.738Z,74.00
2023-04-19T00:34:45.741Z,73.68
2023-04-19T00:37:33.791Z,73.17
2023-04-19T00:40:21.105Z,72.79
2023-04-19T00:43:07.972Z,73.90
2023-04-19T00:45:55.043Z,74.10
2023-04-19T00:48:41.570Z,75.54
2023-04-19T00:51:28.686Z,74.03
2023-04-19T00:54:17.429Z,75.68
2023-04-19T00:57:04.152Z,74.63
2023-04-19T00:59:51.608Z,75.77
2023-04-19T01:02:38.616Z,75.67
2023-04-19T01:05:25.214Z,76.98
2023-04-19T01:08:12.145Z,76.24
2023-04-19T01:11:00.358Z,76.58
2023-04-19T01:13:47.119Z,76.19
2023-04-19T01:16:33.931Z,76.68
2023-04-19T01:19:21.414Z,76.71
2023-04-19T01:22:07.881Z,77.48
2023-04-19T01:24:57.604Z,78.43
2023-04-19T01:27:44.502Z,78.61
2023-04-19T01:30:31.398Z,77.11
2023-04-19T01:33:18.108Z,77.66
2023-04-19T01:36:05.321Z,76.98
2023-04-19T01:38:52.114Z,79.09
2023-04-19T01:41:40.292Z,79.34
2023-04-19T01:44:27.165Z,79.45
2023-04-19T01:47:13.967Z,79.59
2023-04-19T01:50:00.832Z,80.00
2023-04-19T01:52:47.291Z,79.46
2023-04-19T01:55:34.204Z,79.17
2023-04-19T01:58:22.498Z,81.39
2023-04-19T02:01:12.695Z,80.40
2023-04-19T02:03:59.590Z,79.72
2023-04-19T02:06:46.323Z,79.52
2023-04-19T02:09:35.818Z,79.03
2023-04-19T02:12:23.533Z,79.95
2023-04-19T02:15:12.127Z,80.83
2023-04-19T02:18:00.321Z,80.61
2023-04-19T02:20:47.079Z,81.40
2023-04-19T02:23:33.906Z,81.88
2023-04-19T02:26:20.821Z,82.08
2023-04-19T02:29:08.079Z,81.81
2023-04-19T02:31:56.082Z,82.88
2023-04-19T02:34:42.850Z,84.16
2023-04-19T02:37:29.692Z,84.65
2023-04-19T02:40:17.186Z,85.20
2023-04-19T02:43:05.082Z,84.25
2023-04-19T02:45:52.349Z,83.09
2023-04-19T02:48:42.307Z,83.71
2023-04-19T02:51:29.600Z,83.88
2023-04-19T02:54:17.013Z,86.06
2023-04-19T02:57:05.174Z,86.17
2023-04-19T02:59:51.858Z,88.04
2023-04-19T03:02:39.579Z,87.87
2023-04-19T03:05:28.572Z,88.01
2023-04-19T03:08:15.293Z,88.96
2023-04-19T03:11:04.122Z,88.67
2023-04-19T03:13:50.882Z,88.48
2023-04-19T03:16:38.088Z,91.03
2023-04-19T03:19:25.070Z,92.28
2023-04-19T03:22:13.644Z,91.91
2023-04-19T03:25:00.369Z,92.80
2023-04-19T03:27:48.166Z,90.81
2023-04-19T03:30:37.940Z,91.23
2023-04-19T03:33:24.791Z,91.40
2023-04-19T03:36:11.970Z,91.73
2023-04-19T03:39:03.975Z,92.39
2023-04-19T03:41:50.972Z,94.45
2023-04-19T03:44:56.462Z,95.58
2023-04-19T03:47:44.330Z,93.51
2023-04-19T03:50:30.973Z,94.41
2023-04-19T03:53:18.983Z,95.20
2023-04-19T03:56:07.250Z,95.87
2023-04-19T03:58:54.310Z,94.81
2023-04-19T04:01:42.436Z,95.83
2023-04-19T04:04:29.848Z,97.26
2023-04-19T04:07:16.892Z,98.32
2023-04-19T04:10:03.692Z,98.90
2023-04-19T04:12:56.299Z,100.00
2023-04-19T04:15:55.792Z,99.39
2023-04-19T04:18:42.789Z,98.96
2023-04-19T04:21:36.805Z,99.42
2023-04-19T04:24:26.740Z,99.80
2023-04-19T04:27:26.276Z,100.00
2023-04-19T04:30:17.426Z,100.00
2023-04-19T04:33:04.317Z,99.61
2023-04-19T04:35:55.931Z,99.21
2023-04-19T04:38:46.067Z,96.13
2023-04-19T04:41:32.516Z,90.93
2023-04-19T04:44:21.041Z,86.14
2023-04-19T04:47:09.123Z,84.54
2023-04-19T04:50:04.691Z,87.34
2023-04-19T04:52:53.867Z,88.33
2023-04-19T04:55:49.206Z,85.94
2023-04-19T04:58:36.035Z,84.69
2023-04-19T05:01:26.416Z,81.24
2023-04-19T05:04:14.708Z,84.54
2023-04-19T05:07:04.301Z,83.83
2023-04-19T05:09:52.297Z,75.97
2023-04-19T05:12:44.161Z,70.29
2023-04-19T05:15:33.281Z,65.74
2023-04-19T05:18:21.739Z,61.25
2023-04-19T05:21:12.374Z,58.14
2023-04-19T05:24:00.935Z,57.12
2023-04-19T05:26:47.765Z,55.62
2023-04-19T05:29:34.990Z,55.24
2023-04-19T05:32:21.792Z,55.24
2023-04-19T05:35:13.870Z,57.28
2023-04-19T05:38:01.865Z,58.78
2023-04-19T05:40:48.697Z,65.32
2023-04-19T05:43:35.491Z,67.01
2023-04-19T05:46:23.171Z,69.43
2023-04-19T05:49:09.806Z,71.82
2023-04-19T05:52:15.038Z,74.31
2023-04-19T05:55:11.106Z,75.32
2023-04-19T05:58:03.353Z,78.04
2023-04-19T06:00:51.742Z,79.98
2023-04-19T06:03:41.545Z,79.53
2023-04-19T06:06:28.588Z,79.64
2023-04-19T06:09:15.355Z,78.25
2023-04-19T06:12:03.573Z,78.58
2023-04-19T06:14:50.277Z,77.35
2023-04-19T06:17:37.046Z,77.02
2023-04-19T06:20:23.782Z,74.87
2023-04-19T06:23:12.878Z,68.67
2023-04-19T06:25:59.346Z,68.05
2023-04-19T06:28:47.551Z,68.47
2023-04-19T06:31:34.737Z,70.30
2023-04-19T06:34:21.257Z,69.79
2023-04-19T06:37:08.105Z,70.66
2023-04-19T06:39:54.851Z,66.38
2023-04-19T06:42:41.666Z,67.01
2023-04-19T06:45:30.127Z,67.95
2023-04-19T06:48:16.477Z,65.39
2023-04-19T06:51:03.398Z,64.56
2023-04-19T06:53:50.915Z,66.80
2023-04-19T06:56:42.127Z,65.58
2023-04-19T06:59:31.715Z,65.79
2023-04-19T07:02:19.564Z,65.40
2023-04-19T07:05:07.982Z,62.83
2023-04-19T07:07:54.462Z,62.99
2023-04-19T07:10:43.224Z,63.26
2023-04-19T07:13:30.072Z,62.59
2023-04-19T07:16:16.785Z,61.41
2023-04-19T07:19:04.759Z,63.81
2023-04-19T07:21:53.026Z,62.12
2023-04-19T07:24:41.859Z,59.95
2023-04-19T07:27:28.677Z,62.56
2023-04-19T07:30:15.415Z,59.43
2023-04-19T07:33:04.494Z,58.73
2023-04-19T07:35:52.609Z,58.93
2023-04-19T07:38:39.161Z,59.88
2023-04-19T07:41:25.951Z,57.79
2023-04-19T07:44:13.766Z,58.89
2023-04-19T07:47:00.928Z,58.34
2023-04-19T07:49:47.612Z,59.44
2023-04-19T07:52:35.830Z,57.37
2023-04-19T07:55:22.385Z,57.42
2023-04-19T07:58:09.181Z,58.65
2023-04-19T08:00:56.011Z,56.04
2023-04-19T08:03:43.229Z,55.09
2023-04-19T08:06:30.899Z,52.99
2023-04-19T08:09:18.671Z,53.87
2023-04-19T08:12:05.636Z,52.92
2023-04-19T08:15:02.520Z,54.00
2023-04-19T08:17:54.337Z,54.09
2023-04-19T08:20:42.681Z,54.04
2023-04-19T08:23:34.965Z,53.22
2023-04-19T08:26:33.217Z,51.96
2023-04-19T08:29:20.342Z,52.58
2023-04-19T08:32:07.407Z,52.26
2023-04-19T08:34:54.050Z,53.72
2023-04-19T08:37:40.848Z,51.20
2023-04-19T08:40:27.740Z,50.38
2023-04-19T08:43:18.206Z,46.52
2023-04-19T08:46:05.799Z,46.17
2023-04-19T08:48:53.230Z,46.36
2023-04-19T08:51:41.657Z,46.63
2023-04-19T08:54:30.368Z,44.00
2023-04-19T08:57:16.985Z,43.21
2023-04-19T09:00:08.067Z,44.03
2023-04-19T09:02:56.123Z,44.47
2023-04-19T09:05:43.414Z,45.93
2023-04-19T09:08:31.327Z,46.59
2023-04-19T09:11:17.970Z,46.83
2023-04-19T09:14:09.661Z,43.96
2023-04-19T09:17:14.705Z,48.71
2023-04-19T09:20:01.190Z,44.27
2023-04-19T09:23:06.137Z,43.64
2023-04-19T09:26:21.479Z,44.20
2023-04-19T09:29:03.079Z,47.78
2023-04-19T09:31:59.998Z,46.02
2023-04-19T09:34:53.485Z,48.43
2023-04-19T09:38:04.038Z,43.77
2023-04-19T09:40:50.374Z,46.54
2023-04-19T09:44:00.885Z,46.69
2023-04-19T09:46:45.680Z,43.72
2023-04-19T09:49:48.109Z,45.70
2023-04-19T09:52:36.993Z,45.57
2023-04-19T09:55:27.347Z,43.73
2023-04-19T09:58:15.094Z,46.19
2023-04-19T10:01:13.287Z,47.56
2023-04-19T10:04:14.913Z,45.02
2023-04-19T10:10:16.130Z,45.95
2023-04-19T10:13:18.850Z,44.50
2023-04-19T10:16:18.352Z,45.09
2023-04-19T10:19:10.209Z,45.34
2023-04-19T10:21:57.568Z,45.78
2023-04-19T10:25:09.731Z,44.02
2023-04-19T10:27:56.538Z,45.61
2023-04-19T10:30:54.616Z,45.01
2023-04-19T10:33:42.569Z,43.47
2023-04-19T10:36:29.908Z,44.36
2023-04-19T10:39:40.646Z,43.02
2023-04-19T10:43:16.172Z,42.86
2023-04-19T10:46:07.589Z,46.16
2023-04-19T10:48:55.232Z,44.29
2023-04-19T10:51:48.709Z,43.01
2023-04-19T10:54:37.683Z,43.22
2023-04-19T10:57:25.384Z,42.16
2023-04-19T11:00:25.775Z,42.74
2023-04-19T11:03:49.709Z,46.13
2023-04-19T11:06:37.279Z,44.19
2023-04-19T11:09:24.300Z,45.63
2023-04-19T11:12:13.606Z,44.27
2023-04-19T11:15:01.154Z,44.65
2023-04-19T11:18:01.010Z,45.71
2023-04-19T11:20:56.001Z,44.01
2023-04-19T11:23:42.998Z,45.11
2023-04-19T11:26:31.406Z,47.30
2023-04-19T11:29:18.146Z,46.37
2023-04-19T11:32:06.184Z,48.60
2023-04-19T11:34:57.271Z,46.23
2023-04-19T11:37:43.982Z,45.67
2023-04-19T11:40:31.001Z,45.06
2023-04-19T11:43:17.518Z,44.98
2023-04-19T11:46:08.220Z,46.51
2023-04-19T11:48:56.511Z,46.19
2023-04-19T11:51:44.831Z,46.35
2023-04-19T11:54:31.373Z,45.49
2023-04-19T11:57:29.146Z,47.95
2023-04-19T12:00:16.954Z,47.29
2023-04-19T12:03:05.295Z,46.36
2023-04-19T12:05:57.144Z,49.05
2023-04-19T12:08:48.192Z,45.42
2023-04-19T12:11:44.521Z,46.17
2023-04-19T12:14:32.566Z,45.98
2023-04-19T12:17:19.480Z,48.27
2023-04-19T12:20:08.461Z,48.98
2023-04-19T12:22:55.085Z,45.85
2023-04-19T12:25:44.998Z,44.59
2023-04-19T12:28:31.937Z,44.42
2023-04-19T12:31:20.872Z,43.29
2023-04-19T12:34:07.472Z,41.78
2023-04-19T12:36:54.353Z,41.05
2023-04-19T12:39:41.157Z,41.21
2023-04-19T12:42:29.246Z,39.33
2023-04-19T12:45:16.358Z,42.47
2023-04-19T12:48:02.995Z,41.41
2023-04-19T12:50:49.777Z,40.78
2023-04-19T12:53:36.544Z,40.63
2023-04-19T12:56:23.434Z,41.46
2023-04-19T12:59:11.850Z,44.03
2023-04-19T13:01:58.707Z,43.96
2023-04-19T13:04:45.614Z,41.06
2023-04-19T13:07:32.232Z,41.75
2023-04-19T13:10:19.064Z,42.46
2023-04-19T13:13:06.008Z,41.40
2023-04-19T13:15:54.130Z,41.95
2023-04-19T13:18:40.488Z,43.58
2023-04-19T13:21:28.035Z,43.67
2023-04-19T13:24:15.072Z,43.73
2023-04-19T13:27:02.253Z,42.43
2023-04-19T13:29:49.227Z,43.67
2023-04-19T13:32:37.707Z,44.04
2023-04-19T13:35:24.186Z,46.06
2023-04-19T13:38:12.072Z,44.78
2023-04-19T13:40:58.986Z,45.33
2023-04-19T13:43:46.703Z,47.96
2023-04-19T13:46:33.860Z,48.34
2023-04-19T13:49:22.049Z,46.33
2023-04-19T13:52:08.945Z,47.81
2023-04-19T13:54:56.087Z,46.38
2023-04-19T13:57:42.817Z,47.12
2023-04-19T14:00:29.623Z,46.25
2023-04-19T14:03:16.348Z,47.16
2023-04-19T14:06:04.390Z,48.96
2023-04-19T14:08:51.478Z,48.77
2023-04-19T14:11:39.041Z,49.05
2023-04-19T14:14:25.505Z,49.02
2023-04-19T14:17:12.732Z,48.75
2023-04-19T14:19:59.677Z,49.32
2023-04-19T14:22:48.171Z,50.14
2023-04-19T14:25:36.854Z,51.75
2023-04-19T14:28:23.306Z,53.48
2023-04-19T14:31:10.146Z,57.07
2023-04-19T14:33:56.846Z,59.13
2023-04-19T14:36:43.560Z,61.71
2023-04-19T14:39:31.974Z,61.84
2023-04-19T14:42:20.795Z,66.76
2023-04-19T14:45:09.848Z,69.57
2023-04-19T14:47:56.484Z,75.43
2023-04-19T14:50:43.273Z,86.23
2023-04-19T14:53:30.933Z,88.38
2023-04-19T14:56:20.019Z,93.48
2023-04-19T14:59:08.141Z,95.28
2023-04-19T15:01:54.676Z,96.48
2023-04-19T15:04:42.128Z,99.99
2023-04-19T15:07:29.530Z,97.86
2023-04-19T15:10:16.216Z,96.92
2023-04-19T15:13:03.975Z,98.62
2023-04-19T15:15:51.336Z,98.43
2023-04-19T15:18:38.303Z,99.44
2023-04-19T15:21:25.076Z,98.56
2023-04-19T15:24:12.002Z,100.00
2023-04-19T15:26:58.874Z,100.00
2023-04-19T15:29:48.231Z,100.00
2023-04-19T15:32:37.001Z,100.00
2023-04-19T15:35:23.400Z,98.85
2023-04-19T15:38:10.296Z,99.59
2023-04-19T15:40:57.980Z,100.00
2023-04-19T15:43:44.714Z,100.00
2023-04-19T15:46:32.840Z,100.00
2023-04-19T15:49:19.787Z,100.00
2023-04-19T15:52:06.503Z,100.00
2023-04-19T15:54:53.826Z,100.00
2023-04-19T15:57:40.510Z,100.00
2023-04-19T16:00:27.716Z,100.00
2023-04-19T16:03:15.957Z,100.00
2023-04-19T16:06:02.607Z,100.00
2023-04-19T16:08:49.406Z,100.00
2023-04-19T16:11:36.114Z,100.00
2023-04-19T16:14:25.082Z,100.00
2023-04-19T16:17:11.947Z,100.00
2023-04-19T16:20:00.199Z,100.00
2023-04-19T16:22:46.675Z,100.00
2023-04-19T16:25:34.406Z,100.00
2023-04-19T16:28:21.452Z,100.00
2023-04-19T16:31:13.925Z,100.00
2023-04-19T16:34:00.757Z,100.00
2023-04-19T16:36:48.946Z,100.00
2023-04-19T16:39:35.599Z,100.00
2023-04-19T16:42:22.314Z,100.00
2023-04-19T16:45:10.190Z,100.00
2023-04-19T16:47:56.908Z,100.00
2023-04-19T16:50:43.608Z,100.00
2023-04-19T16:53:32.096Z,100.00
2023-04-19T16:56:19.473Z,100.00
2023-04-19T16:59:06.452Z,100.00
2023-04-19T17:01:57.890Z,100.00
2023-04-19T17:04:46.429Z,100.00
2023-04-19T17:07:33.582Z,100.00
2023-04-19T17:10:21.883Z,100.00
2023-04-19T17:13:09.058Z,100.00
2023-04-19T17:15:55.527Z,100.00
2023-04-19T17:18:42.354Z,100.00
2023-04-19T17:21:29.160Z,100.00
2023-04-19T17:24:16.329Z,100.00
2023-04-19T17:27:04.585Z,100.00
2023-04-19T17:29:51.445Z,100.00
2023-04-19T17:32:38.196Z,100.00
2023-04-19T17:35:26.107Z,100.00
2023-04-19T17:38:12.827Z,100.00
2023-04-19T17:40:59.785Z,100.00
2023-04-19T17:43:48.768Z,100.00
2023-04-19T17:46:35.339Z,100.00
2023-04-19T17:49:22.218Z,100.00
2023-04-19T17:52:09.078Z,100.00
2023-04-19T17:54:56.270Z,100.00
2023-04-19T17:57:42.907Z,100.00
2023-04-19T18:00:31.035Z,100.00
2023-04-19T18:03:18.645Z,100.00
2023-04-19T18:06:06.843Z,100.00
2023-04-19T18:08:55.310Z,100.00
2023-04-19T18:11:43.581Z,100.00
2023-04-19T18:14:31.479Z,100.00
2023-04-19T18:17:20.443Z,100.00
2023-04-19T18:20:09.190Z,100.00
2023-04-19T18:23:00.230Z,100.00
2023-04-19T18:25:54.009Z,100.00
2023-04-19T18:28:41.095Z,100.00
2023-04-19T18:31:28.464Z,100.00
2023-04-19T18:34:17.409Z,100.00
2023-04-19T18:37:05.436Z,100.00
2023-04-19T18:39:52.097Z,100.00
2023-04-19T18:42:39.160Z,100.00
2023-04-19T18:45:26.343Z,100.00
2023-04-19T18:48:15.238Z,100.00
2023-04-19T18:51:05.646Z,100.00
2023-04-19T18:53:52.290Z,100.00
2023-04-19T18:59:28.373Z,100.00
2023-04-19T19:02:15.858Z,100.00
2023-04-19T19:05:03.453Z,100.00
2023-04-19T19:07:52.404Z,100.00
2023-04-19T19:11:08.760Z,100.00
2023-04-19T19:13:46.067Z,100.00
2023-04-19T19:16:32.479Z,100.00
2023-04-19T19:19:20.756Z,100.00
2023-04-19T19:22:22.395Z,100.00
2023-04-19T19:25:14.006Z,100.00
2023-04-19T19:28:06.488Z,100.00
2023-04-19T19:30:54.910Z,100.00
2023-04-19T19:33:41.566Z,100.00
2023-04-19T19:36:28.761Z,100.00
2023-04-19T19:39:15.681Z,100.00
2023-04-19T19:42:06.340Z,100.00
2023-04-19T19:44:55.418Z,100.00
2023-04-19T19:47:45.479Z,100.00
2023-04-19T19:53:22.211Z,100.00
2023-04-19T19:56:18.251Z,100.00
2023-04-19T19:59:09.607Z,100.00
2023-04-19T20:01:56.485Z,100.00
2023-04-19T20:04:43.361Z,100.00
2023-04-19T20:07:58.308Z,100.00
2023-04-19T20:10:36.738Z,100.00
2023-04-19T20:13:23.409Z,100.00
2023-04-19T20:16:11.412Z,100.00
2023-04-19T20:18:59.576Z,100.00
2023-04-19T20:21:47.069Z,100.00
2023-04-19T20:24:35.060Z,100.00
2023-04-19T20:27:21.843Z,100.00
2023-04-19T20:30:09.908Z,100.00
2023-04-19T20:32:58.164Z,100.00
2023-04-19T20:35:44.434Z,100.00
2023-04-19T20:38:31.991Z,100.00
2023-04-19T20:41:19.497Z,100.00
2023-04-19T20:44:06.382Z,100.00
2023-04-19T20:46:52.760Z,100.00
2023-04-19T20:49:41.201Z,100.00
2023-04-19T20:52:28.000Z,100.00
2023-04-19T20:55:15.416Z,100.00
2023-04-19T20:58:02.609Z,100.00
2023-04-19T21:00:50.153Z,100.00
2023-04-19T21:03:37.297Z,100.00
2023-04-19T21:06:25.167Z,100.00
2023-04-19T21:09:12.053Z,100.00
2023-04-19T21:11:58.615Z,100.00
2023-04-19T21:14:49.266Z,100.00
2023-04-19T21:17:36.725Z,100.00
2023-04-19T21:20:23.771Z,100.00
2023-04-19T21:23:12.425Z,100.00
2023-04-19T21:25:58.939Z,100.00
2023-04-19T21:28:45.754Z,100.00
2023-04-19T21:31:32.511Z,100.00
2023-04-19T21:34:19.285Z,100.00
2023-04-19T21:37:06.349Z,100.00
2023-04-19T21:39:54.524Z,100.00
2023-04-19T21:42:41.342Z,100.00
2023-04-19T21:45:28.172Z,100.00
2023-04-19T21:48:14.964Z,100.00
2023-04-19T21:51:02.222Z,100.00
2023-04-19T21:53:49.011Z,100.00
2023-04-19T21:56:38.811Z,100.00
2023-04-19T21:59:25.758Z,100.00
2023-04-19T22:02:12.547Z,100.00
2023-04-19T22:05:00.350Z,100.00
2023-04-19T22:07:47.551Z,100.00
2023-04-19T22:10:34.922Z,100.00
2023-04-19T22:13:23.343Z,100.00
2023-04-19T22:16:10.118Z,100.00
2023-04-19T22:18:57.899Z,100.00
2023-04-19T22:21:44.800Z,100.00
2023-04-19T22:24:31.525Z,100.00
2023-04-19T22:27:18.445Z,100.00
2023-04-19T22:30:08.456Z,100.00
2023-04-19T22:32:55.485Z,100.00
2023-04-19T22:35:42.036Z,100.00
2023-04-19T22:38:29.008Z,100.00
2023-04-19T22:41:16.796Z,100.00
2023-04-19T22:44:04.568Z,100.00
2023-04-19T22:46:52.694Z,100.00
2023-04-19T22:49:42.990Z,100.00
2023-04-19T22:52:29.882Z,100.00
2023-04-19T22:55:16.642Z,100.00
2023-04-19T22:58:04.885Z,100.00
2023-04-19T23:00:51.707Z,100.00
2023-04-19T23:03:49.061Z,100.00
2023-04-19T23:06:36.981Z,100.00
2023-04-19T23:09:25.300Z,100.00
2023-04-19T23:12:16.409Z,100.00
2023-04-19T23:15:04.031Z,100.00
2023-04-19T23:17:50.739Z,100.00
2023-04-19T23:20:38.968Z,100.00
2023-04-19T23:23:27.877Z,100.00
2023-04-19T23:26:14.234Z,100.00
2023-04-19T23:29:00.942Z,100.00
2023-04-19T23:31:47.625Z,100.00
2023-04-19T23:34:34.364Z,100.00
2023-04-19T23:37:22.484Z,100.00
2023-04-19T23:40:10.535Z,100.00
2023-04-19T23:42:57.369Z,100.00
2023-04-19T23:45:44.062Z,100.00
2023-04-19T23:48:30.947Z,100.00
2023-04-19T23:51:17.943Z,100.00
2023-04-19T23:54:06.267Z,100.00
2023-04-19T23:56:53.484Z,100.00
2023-04-19T23:59:40.251Z,100.00
